createdAt,value
2023-01-12T00:01:55.949Z,2.40
2023-01-12T00:04:22.546Z,2.03
2023-01-12T00:06:49.133Z,1.97
2023-01-12T00:09:15.707Z,3.07
2023-01-12T00:11:42.379Z,1.67
2023-01-12T00:14:09.441Z,2.13
2023-01-12T00:16:39.549Z,2.20
2023-01-12T00:19:12.165Z,2.70
2023-01-12T00:22:04.544Z,1.50
2023-01-12T00:24:39.629Z,1.77
2023-01-12T00:27:08.664Z,2.40
2023-01-12T00:29:36.310Z,2.40
2023-01-12T00:32:03.660Z,2.87
2023-01-12T00:34:30.213Z,2.40
2023-01-12T00:36:59.519Z,3.30
2023-01-12T00:39:26.034Z,3.60
2023-01-12T00:42:10.895Z,2.60
2023-01-12T00:44:56.061Z,2.90
2023-01-12T00:47:22.541Z,2.83
2023-01-12T00:49:49.904Z,3.33
2023-01-12T00:52:29.786Z,3.40
2023-01-12T00:54:58.288Z,3.57
2023-01-12T00:57:24.783Z,3.40
2023-01-12T00:59:54.904Z,4.17
2023-01-12T01:02:21.640Z,3.57
2023-01-12T01:04:48.252Z,3.73
2023-01-12T01:07:16.083Z,3.70
2023-01-12T01:09:43.192Z,3.33
2023-01-12T01:12:10.149Z,3.87
2023-01-12T01:14:36.628Z,3.53
2023-01-12T01:17:03.087Z,3.50
2023-01-12T01:19:29.532Z,4.03
2023-01-12T01:21:55.999Z,3.70
2023-01-12T01:24:22.437Z,3.90
2023-01-12T01:26:50.573Z,4.13
2023-01-12T01:29:17.115Z,4.30
2023-01-12T01:31:43.526Z,3.80
2023-01-12T01:34:09.993Z,3.67
2023-01-12T01:36:36.391Z,3.37
2023-01-12T01:39:03.000Z,3.13
2023-01-12T01:41:33.951Z,2.83
2023-01-12T01:44:06.642Z,3.30
2023-01-12T01:46:47.970Z,4.03
2023-01-12T01:49:37.097Z,3.33
2023-01-12T01:52:09.347Z,3.37
2023-01-12T01:54:40.688Z,3.27
2023-01-12T01:57:09.547Z,3.87
2023-01-12T01:59:38.327Z,3.07
2023-01-12T02:02:05.394Z,2.43
2023-01-12T02:04:32.228Z,3.00
2023-01-12T02:07:01.329Z,2.87
2023-01-12T02:09:30.720Z,3.10
2023-01-12T02:12:15.875Z,2.50
2023-01-12T02:15:04.144Z,2.43
2023-01-12T02:17:48.875Z,2.20
2023-01-12T02:20:34.157Z,2.30
2023-01-12T02:23:22.005Z,1.57
2023-01-12T02:26:00.509Z,2.20
2023-01-12T02:28:51.955Z,2.00
2023-01-12T02:31:30.317Z,1.70
2023-01-12T02:34:29.097Z,2.53
2023-01-12T02:37:21.716Z,2.40
2023-01-12T02:40:04.732Z,2.20
2023-01-12T02:42:42.470Z,1.90
2023-01-12T02:45:27.708Z,2.47
2023-01-12T02:48:22.020Z,2.10
2023-01-12T02:50:54.187Z,1.60
2023-01-12T02:53:24.292Z,1.70
2023-01-12T02:55:52.168Z,2.10
2023-01-12T02:58:22.534Z,2.17
2023-01-12T03:00:54.411Z,2.40
2023-01-12T03:03:21.983Z,2.30
2023-01-12T03:05:48.689Z,2.20
2023-01-12T03:08:23.583Z,2.60
2023-01-12T03:10:57.027Z,2.40
2023-01-12T03:13:26.881Z,2.23
2023-01-12T03:15:55.994Z,3.30
2023-01-12T03:18:37.946Z,2.67
2023-01-12T03:21:22.701Z,1.80
2023-01-12T03:23:55.630Z,2.70
2023-01-12T03:26:27.772Z,2.70
2023-01-12T03:29:02.308Z,2.93
2023-01-12T03:31:28.903Z,2.67
2023-01-12T03:33:55.764Z,2.27
2023-01-12T03:36:33.674Z,2.40
2023-01-12T03:39:14.781Z,2.50
2023-01-12T03:41:53.368Z,3.00
2023-01-12T03:44:28.719Z,3.43
2023-01-12T03:47:01.412Z,2.43
2023-01-12T03:49:41.371Z,2.73
2023-01-12T03:52:10.646Z,2.10
2023-01-12T03:54:39.625Z,2.73
2023-01-12T03:57:08.929Z,1.90
2023-01-12T03:59:35.930Z,2.67
2023-01-12T04:02:03.115Z,2.07
2023-01-12T04:04:29.676Z,2.87
2023-01-12T04:06:56.454Z,2.73
2023-01-12T04:09:25.389Z,2.30
2023-01-12T04:12:10.468Z,2.10
2023-01-12T04:14:38.177Z,1.60
2023-01-12T04:17:05.032Z,1.90
2023-01-12T04:19:31.554Z,1.70
2023-01-12T04:22:16.756Z,2.33
2023-01-12T04:24:43.355Z,1.60
2023-01-12T04:27:10.110Z,1.60
2023-01-12T04:29:36.576Z,1.40
2023-01-12T04:32:04.515Z,1.80
2023-01-12T04:34:31.013Z,1.90
2023-01-12T04:36:57.545Z,2.10
2023-01-12T04:39:24.512Z,1.33
2023-01-12T04:41:50.933Z,1.40
2023-01-12T04:44:17.427Z,1.20
2023-01-12T04:46:43.867Z,1.93
2023-01-12T04:49:10.337Z,2.30
2023-01-12T04:51:36.812Z,1.30
2023-01-12T04:54:03.407Z,1.47
2023-01-12T04:56:31.227Z,2.10
2023-01-12T04:59:00.309Z,1.93
2023-01-12T05:01:29.320Z,1.70
2023-01-12T05:03:58.050Z,1.50
2023-01-12T05:06:24.779Z,1.00
2023-01-12T05:09:09.804Z,1.53
2023-01-12T05:11:36.241Z,1.23
2023-01-12T05:14:03.667Z,1.87
2023-01-12T05:16:30.710Z,1.47
2023-01-12T05:18:57.313Z,1.40
2023-01-12T05:21:24.593Z,1.80
2023-01-12T05:23:54.226Z,1.70
2023-01-12T05:26:20.902Z,1.70
2023-01-12T05:28:51.307Z,1.50
2023-01-12T05:31:19.540Z,1.60
2023-01-12T05:33:48.135Z,1.60
2023-01-12T05:36:16.308Z,1.60
2023-01-12T05:38:43.070Z,1.63
2023-01-12T05:41:11.883Z,1.60
2023-01-12T05:43:50.610Z,1.83
2023-01-12T05:46:29.386Z,1.50
2023-01-12T05:48:57.630Z,1.67
2023-01-12T05:51:26.791Z,1.30
2023-01-12T05:53:54.449Z,1.87
2023-01-12T05:56:25.725Z,1.83
2023-01-12T05:58:54.820Z,3.57
2023-01-12T06:01:22.284Z,2.27
2023-01-12T06:03:50.688Z,2.33
2023-01-12T06:06:18.917Z,1.27
2023-01-12T06:08:45.858Z,1.50
2023-01-12T06:11:31.768Z,1.50
2023-01-12T06:13:59.573Z,1.40
2023-01-12T06:16:27.763Z,1.90
2023-01-12T06:18:54.565Z,1.80
2023-01-12T06:21:21.106Z,1.53
2023-01-12T06:23:47.576Z,1.30
2023-01-12T06:26:14.194Z,1.40
2023-01-12T06:28:42.937Z,1.67
2023-01-12T06:31:11.823Z,1.07
2023-01-12T06:33:38.401Z,1.23
2023-01-12T06:36:05.523Z,1.50
2023-01-12T06:38:33.692Z,1.47
2023-01-12T06:41:03.770Z,2.00
2023-01-12T06:43:30.711Z,1.33
2023-01-12T06:45:57.357Z,1.33
2023-01-12T06:48:25.907Z,1.60
2023-01-12T06:51:02.238Z,0.90
2023-01-12T06:53:28.685Z,1.93
2023-01-12T06:55:55.079Z,1.70
2023-01-12T06:58:21.514Z,1.67
2023-01-12T07:00:47.953Z,1.70
2023-01-12T07:03:19.237Z,1.70
2023-01-12T07:05:45.775Z,1.87
2023-01-12T07:08:15.873Z,1.90
2023-01-12T07:10:43.115Z,1.77
2023-01-12T07:13:09.841Z,1.80
2023-01-12T07:15:36.903Z,2.10
2023-01-12T07:18:03.574Z,1.90
2023-01-12T07:20:30.389Z,1.80
2023-01-12T07:22:56.914Z,1.50
2023-01-12T07:25:25.182Z,1.60
2023-01-12T07:27:53.451Z,1.90
2023-01-12T07:30:21.777Z,1.80
2023-01-12T07:32:49.247Z,1.47
2023-01-12T07:35:16.877Z,2.37
2023-01-12T07:37:54.017Z,1.70
2023-01-12T07:40:20.780Z,1.70
2023-01-12T07:42:47.540Z,1.90
2023-01-12T07:45:14.236Z,1.90
2023-01-12T07:47:40.988Z,1.63
2023-01-12T07:50:08.034Z,1.50
2023-01-12T07:52:34.942Z,2.30
2023-01-12T07:55:01.565Z,1.70
2023-01-12T07:57:29.534Z,1.87
2023-01-12T07:59:56.135Z,1.67
2023-01-12T08:02:22.853Z,1.80
2023-01-12T08:04:49.490Z,1.70
2023-01-12T08:07:16.053Z,1.40
2023-01-12T08:09:42.680Z,1.50
2023-01-12T08:12:09.437Z,1.47
2023-01-12T08:14:38.660Z,1.60
2023-01-12T08:17:35.403Z,1.53
2023-01-12T08:20:08.765Z,1.50
2023-01-12T08:22:40.064Z,1.77
2023-01-12T08:25:12.684Z,1.67
2023-01-12T08:27:43.801Z,1.50
2023-01-12T08:30:14.285Z,1.60
2023-01-12T08:32:41.335Z,1.50
2023-01-12T08:35:08.868Z,1.77
2023-01-12T08:37:35.760Z,2.23
2023-01-12T08:40:04.746Z,2.13
2023-01-12T08:42:31.928Z,1.97
2023-01-12T08:44:58.699Z,1.53
2023-01-12T08:47:30.367Z,1.80
2023-01-12T08:49:59.343Z,1.20
2023-01-12T08:52:29.348Z,1.70
2023-01-12T08:54:56.309Z,1.47
2023-01-12T08:57:23.028Z,2.13
2023-01-12T08:59:49.667Z,1.77
2023-01-12T09:02:16.712Z,1.70
2023-01-12T09:04:43.458Z,1.80
2023-01-12T09:07:11.412Z,1.60
2023-01-12T09:09:38.613Z,1.97
2023-01-12T09:12:05.978Z,1.37
2023-01-12T09:14:38.484Z,1.80
2023-01-12T09:17:06.925Z,2.23
2023-01-12T09:19:33.429Z,1.80
2023-01-12T09:21:59.925Z,1.43
2023-01-12T09:24:26.734Z,1.43
2023-01-12T09:26:53.220Z,1.57
2023-01-12T09:29:19.688Z,2.87
2023-01-12T09:31:46.380Z,1.93
2023-01-12T09:34:13.080Z,1.00
2023-01-12T09:36:40.347Z,1.23
2023-01-12T09:39:12.799Z,1.60
2023-01-12T09:42:06.623Z,1.97
2023-01-12T09:45:01.513Z,1.43
2023-01-12T09:47:52.689Z,1.77
2023-01-12T09:50:23.875Z,1.87
2023-01-12T09:53:01.269Z,1.67
2023-01-12T09:55:36.791Z,1.83
2023-01-12T09:58:48.476Z,1.50
2023-01-12T10:01:28.675Z,1.10
2023-01-12T10:03:56.581Z,0.93
2023-01-12T10:06:23.050Z,1.03
2023-01-12T10:08:54.955Z,1.10
2023-01-12T10:11:33.412Z,1.27
2023-01-12T10:14:24.484Z,1.63
2023-01-12T10:17:05.988Z,1.20
2023-01-12T10:19:50.865Z,1.30
2023-01-12T10:22:39.780Z,1.27
2023-01-12T10:25:21.967Z,0.53
2023-01-12T10:27:50.793Z,0.87
2023-01-12T10:30:37.673Z,1.53
2023-01-12T10:33:20.932Z,1.40
2023-01-12T10:35:54.612Z,1.60
2023-01-12T10:38:31.353Z,1.83
2023-01-12T10:41:04.024Z,1.10
2023-01-12T10:43:34.230Z,1.57
2023-01-12T10:46:10.202Z,1.33
2023-01-12T10:48:43.236Z,1.40
2023-01-12T10:51:29.549Z,1.10
2023-01-12T10:54:02.978Z,1.30
2023-01-12T10:56:41.539Z,0.90
2023-01-12T10:59:13.869Z,1.97
2023-01-12T11:02:03.470Z,1.07
2023-01-12T11:04:30.712Z,0.80
2023-01-12T11:07:05.250Z,0.77
2023-01-12T11:09:32.218Z,1.30
2023-01-12T11:12:02.031Z,1.13
2023-01-12T11:14:34.280Z,1.30
2023-01-12T11:17:29.948Z,1.00
2023-01-12T11:20:00.641Z,1.40
2023-01-12T11:22:37.247Z,1.10
2023-01-12T11:25:13.410Z,1.10
2023-01-12T11:27:47.189Z,1.53
2023-01-12T11:30:23.556Z,1.33
2023-01-12T11:33:04.387Z,1.43
2023-01-12T11:35:40.677Z,1.60
2023-01-12T11:38:15.682Z,1.60
2023-01-12T11:40:44.231Z,1.20
2023-01-12T11:43:32.367Z,1.77
2023-01-12T11:46:07.751Z,1.40
2023-01-12T11:48:53.057Z,1.30
2023-01-12T11:51:19.699Z,1.30
2023-01-12T11:53:46.588Z,1.57
2023-01-12T11:56:24.454Z,1.10
2023-01-12T11:59:33.502Z,1.27
2023-01-12T12:02:27.548Z,1.27
2023-01-12T12:05:06.545Z,1.20
2023-01-12T12:07:51.356Z,0.90
2023-01-12T12:10:25.537Z,1.00
2023-01-12T12:13:24.600Z,1.10
2023-01-12T12:16:19.334Z,1.10
2023-01-12T12:19:07.209Z,1.60
2023-01-12T12:21:46.760Z,1.17
2023-01-12T12:24:22.033Z,1.00
2023-01-12T12:26:57.205Z,1.10
2023-01-12T12:29:51.892Z,1.17
2023-01-12T12:33:00.860Z,1.13
2023-01-12T12:35:41.677Z,1.10
2023-01-12T12:38:22.723Z,1.20
2023-01-12T12:41:25.995Z,1.10
2023-01-12T12:44:33.746Z,1.00
2023-01-12T12:47:00.213Z,1.37
2023-01-12T12:49:32.768Z,1.60
2023-01-12T12:52:01.229Z,1.40
2023-01-12T12:54:29.040Z,2.00
2023-01-12T12:56:56.575Z,1.70
2023-01-12T12:59:32.211Z,2.10
2023-01-12T13:02:01.116Z,2.00
2023-01-12T13:04:42.717Z,1.90
2023-01-12T13:07:15.453Z,2.03
2023-01-12T13:09:43.679Z,2.10
2023-01-12T13:12:20.486Z,2.23
2023-01-12T13:15:18.346Z,2.53
2023-01-12T13:17:46.249Z,3.40
2023-01-12T13:20:24.520Z,3.10
2023-01-12T13:22:52.171Z,3.20
2023-01-12T13:25:26.413Z,2.50
2023-01-12T13:28:10.058Z,3.23
2023-01-12T13:42:57.694Z,2.93
2023-01-12T13:45:24.806Z,2.67
2023-01-12T13:47:53.452Z,1.87
2023-01-12T13:50:22.843Z,2.30
2023-01-12T13:53:00.364Z,2.33
2023-01-12T13:55:29.861Z,2.03
2023-01-12T13:58:21.414Z,2.27
2023-01-12T14:00:55.564Z,2.23
2023-01-12T14:03:35.173Z,2.90
2023-01-12T14:06:27.559Z,2.87
2023-01-12T14:09:14.234Z,1.73
2023-01-12T14:11:58.839Z,2.30
2023-01-12T14:15:08.342Z,1.80
2023-01-12T14:17:49.951Z,1.63
2023-01-12T14:20:28.210Z,1.67
2023-01-12T14:23:16.517Z,2.13
2023-01-12T14:25:43.577Z,1.87
2023-01-12T14:28:36.843Z,1.87
2023-01-12T14:31:05.995Z,2.07
2023-01-12T14:33:34.907Z,1.63
2023-01-12T14:36:13.704Z,1.80
2023-01-12T14:38:42.835Z,1.37
2023-01-12T14:41:36.821Z,1.30
2023-01-12T14:44:22.317Z,2.13
2023-01-12T14:46:51.823Z,1.73
2023-01-12T14:49:28.568Z,1.80
2023-01-12T14:51:57.721Z,1.90
2023-01-12T14:54:29.214Z,2.07
2023-01-12T14:57:02.819Z,1.90
2023-01-12T14:59:32.888Z,1.73
2023-01-12T15:02:18.988Z,1.97
2023-01-12T15:05:03.810Z,1.93
2023-01-12T15:07:35.582Z,1.53
2023-01-12T15:10:24.861Z,2.10
2023-01-12T15:12:54.368Z,2.10
2023-01-12T15:15:48.297Z,2.73
2023-01-12T15:18:33.961Z,2.40
2023-01-12T15:21:19.708Z,3.13
2023-01-12T15:24:05.778Z,2.23
2023-01-12T15:26:32.198Z,2.20
2023-01-12T15:28:58.582Z,2.37
2023-01-12T15:31:28.420Z,2.40
2023-01-12T15:33:56.470Z,1.80
2023-01-12T15:36:24.729Z,2.00
2023-01-12T15:38:51.672Z,1.63
2023-01-12T15:41:43.029Z,1.70
2023-01-12T15:44:14.541Z,2.37
2023-01-12T15:46:41.686Z,2.23
2023-01-12T15:49:09.219Z,1.30
2023-01-12T15:51:36.103Z,1.40
2023-01-12T15:54:04.124Z,2.43
2023-01-12T15:56:30.559Z,1.90
2023-01-12T15:58:57.839Z,1.97
2023-01-12T16:01:32.596Z,2.20
2023-01-12T16:04:35.582Z,1.67
2023-01-12T16:06:45.760Z,2.03
2023-01-12T16:09:12.325Z,2.20
2023-01-12T16:11:38.898Z,2.30
2023-01-12T16:14:05.541Z,2.37
2023-01-12T16:16:32.099Z,2.10
2023-01-12T16:18:59.903Z,2.30
2023-01-12T16:21:28.650Z,2.40
2023-01-12T16:23:57.771Z,1.83
2023-01-12T16:26:26.083Z,2.10
2023-01-12T16:28:53.146Z,2.13
2023-01-12T16:31:20.278Z,2.77
2023-01-12T16:33:47.277Z,3.07
2023-01-12T16:36:15.162Z,2.70
2023-01-12T16:38:41.694Z,2.70
2023-01-12T16:41:10.897Z,3.13
2023-01-12T16:43:38.183Z,3.23
2023-01-12T16:46:05.784Z,2.67
2023-01-12T16:48:35.107Z,2.90
2023-01-12T16:51:01.605Z,2.90
2023-01-12T16:53:28.087Z,2.50
2023-01-12T16:55:54.526Z,3.40
2023-01-12T16:58:20.964Z,2.97
2023-01-12T17:00:47.521Z,2.87
2023-01-12T17:03:14.169Z,2.60
2023-01-12T17:05:42.003Z,2.90
2023-01-12T17:08:08.986Z,2.97
2023-01-12T17:10:36.480Z,2.97
2023-01-12T17:13:03.070Z,2.93
2023-01-12T17:15:30.169Z,2.80
2023-01-12T17:17:57.031Z,3.23
2023-01-12T17:20:23.769Z,2.50
2023-01-12T17:22:50.657Z,2.20
2023-01-12T17:25:17.538Z,2.63
2023-01-12T17:27:44.134Z,2.40
2023-01-12T17:30:11.392Z,2.27
2023-01-12T17:32:38.008Z,2.97
2023-01-12T17:35:07.851Z,2.93
2023-01-12T17:37:34.336Z,2.80
2023-01-12T17:40:00.806Z,2.60
2023-01-12T17:42:45.453Z,2.97
2023-01-12T17:45:12.131Z,2.90
2023-01-12T17:47:38.571Z,3.47
2023-01-12T17:50:05.477Z,3.67
2023-01-12T17:52:31.919Z,3.90
2023-01-12T17:54:58.436Z,3.93
2023-01-12T17:57:24.942Z,4.80
2023-01-12T17:59:51.595Z,3.90
2023-01-12T18:02:18.329Z,3.57
2023-01-12T18:04:44.825Z,3.50
2023-01-12T18:07:11.272Z,3.30
2023-01-12T18:09:37.788Z,3.20
2023-01-12T18:12:05.221Z,4.10
2023-01-12T18:14:31.819Z,3.63
2023-01-12T18:16:58.289Z,3.50
2023-01-12T18:19:24.824Z,3.87
2023-01-12T18:21:51.291Z,3.63
2023-01-12T18:24:17.810Z,3.93
2023-01-12T18:26:44.442Z,3.60
2023-01-12T18:29:10.965Z,3.47
2023-01-12T18:31:37.609Z,3.60
2023-01-12T18:34:05.706Z,3.50
2023-01-12T18:36:34.781Z,3.37
2023-01-12T18:39:01.466Z,3.50
2023-01-12T18:41:46.604Z,3.33
2023-01-12T18:44:13.241Z,2.80
2023-01-12T18:47:01.089Z,3.07
2023-01-12T18:49:30.443Z,3.90
2023-01-12T18:52:16.049Z,3.30
2023-01-12T18:54:47.576Z,3.63
2023-01-12T18:57:19.376Z,3.17
2023-01-12T18:59:50.870Z,3.40
2023-01-12T19:02:18.886Z,3.73
2023-01-12T19:04:50.863Z,3.00
2023-01-12T19:07:28.344Z,3.00
2023-01-12T19:09:55.284Z,2.73
2023-01-12T19:12:21.857Z,3.27
2023-01-12T19:15:06.681Z,3.50
2023-01-12T19:17:33.412Z,3.50
2023-01-12T19:20:02.089Z,3.53
2023-01-12T19:22:47.073Z,3.03
2023-01-12T19:25:37.632Z,3.73
2023-01-12T19:28:23.729Z,4.20
2023-01-12T19:30:50.601Z,3.83
2023-01-12T19:33:17.561Z,3.17
2023-01-12T19:35:45.916Z,4.20
2023-01-12T19:38:14.429Z,4.33
2023-01-12T19:40:48.601Z,4.00
2023-01-12T19:43:20.926Z,3.70
2023-01-12T19:45:55.110Z,3.00
2023-01-12T19:48:24.390Z,4.50
2023-01-12T19:50:51.819Z,3.53
2023-01-12T19:53:23.769Z,3.77
2023-01-12T19:55:50.981Z,2.63
2023-01-12T19:58:20.786Z,3.93
2023-01-12T20:00:49.747Z,3.30
2023-01-12T20:03:18.334Z,3.33
2023-01-12T20:05:50.948Z,3.77
2023-01-12T20:08:23.582Z,3.93
2023-01-12T20:10:58.392Z,3.00
2023-01-12T20:13:25.833Z,2.87
2023-01-12T20:15:53.076Z,3.10
2023-01-12T20:18:20.211Z,3.47
2023-01-12T20:20:46.793Z,3.40
2023-01-12T20:23:14.912Z,3.70
2023-01-12T20:25:42.704Z,3.50
2023-01-12T20:28:13.087Z,3.10
2023-01-12T20:30:40.856Z,3.20
2023-01-12T20:33:07.748Z,3.60
2023-01-12T20:35:35.476Z,3.93
2023-01-12T20:38:04.087Z,3.53
2023-01-12T20:40:30.524Z,4.03
2023-01-12T20:42:56.959Z,4.50
2023-01-12T20:45:23.408Z,4.10
2023-01-12T20:47:49.877Z,4.00
2023-01-12T20:50:18.729Z,3.70
2023-01-12T20:52:48.025Z,3.53
2023-01-12T20:55:14.584Z,3.73
2023-01-12T20:57:41.008Z,3.00
2023-01-12T21:00:09.042Z,3.33
2023-01-12T21:02:35.945Z,3.50
2023-01-12T21:05:03.033Z,2.80
2023-01-12T21:07:29.535Z,2.17
2023-01-12T21:09:56.087Z,3.10
2023-01-12T21:12:22.661Z,2.50
2023-01-12T21:14:49.338Z,2.90
2023-01-12T21:17:16.947Z,2.67
2023-01-12T21:19:43.808Z,2.27
2023-01-12T21:22:10.370Z,2.37
2023-01-12T21:24:36.904Z,3.00
2023-01-12T21:27:04.107Z,2.80
2023-01-12T21:29:30.639Z,2.07
2023-01-12T21:31:57.170Z,2.43
2023-01-12T21:34:23.992Z,2.77
2023-01-12T21:36:50.486Z,2.50
2023-01-12T21:39:17.024Z,2.70
2023-01-12T21:42:02.327Z,2.63
2023-01-12T21:44:28.752Z,2.47
2023-01-12T21:46:55.589Z,2.27
2023-01-12T21:49:22.007Z,2.70
2023-01-12T21:51:48.533Z,2.20
2023-01-12T21:54:14.933Z,2.20
2023-01-12T21:56:41.390Z,2.30
2023-01-12T21:59:07.830Z,2.57
2023-01-12T22:01:34.412Z,2.43
2023-01-12T22:04:00.959Z,2.57
2023-01-12T22:06:27.508Z,2.00
2023-01-12T22:08:53.946Z,2.23
2023-01-12T22:11:20.359Z,2.20
2023-01-12T22:13:46.914Z,2.20
2023-01-12T22:16:15.688Z,1.90
2023-01-12T22:18:49.253Z,2.00
2023-01-12T22:21:17.147Z,2.33
2023-01-12T22:23:43.978Z,3.07
2023-01-12T22:26:12.903Z,2.30
2023-01-12T22:28:42.104Z,2.53
2023-01-12T22:31:18.990Z,2.60
2023-01-12T22:34:03.893Z,2.33
2023-01-12T22:36:34.727Z,2.80
2023-01-12T22:39:01.386Z,2.33
2023-01-12T22:41:27.818Z,2.37
2023-01-12T22:43:54.945Z,1.40
2023-01-12T22:46:26.576Z,2.13
2023-01-12T22:48:57.839Z,2.40
2023-01-12T22:51:26.127Z,2.53
2023-01-12T22:53:53.821Z,3.20
2023-01-12T22:56:20.320Z,2.17
2023-01-12T22:58:48.999Z,2.43
2023-01-12T23:01:16.727Z,2.80
2023-01-12T23:03:43.555Z,1.60
2023-01-12T23:06:14.929Z,2.40
2023-01-12T23:08:42.982Z,2.13
2023-01-12T23:11:15.050Z,2.47
2023-01-12T23:13:43.237Z,1.97
2023-01-12T23:16:11.486Z,2.27
2023-01-12T23:18:39.992Z,1.33
2023-01-12T23:21:14.192Z,2.20
2023-01-12T23:23:43.313Z,2.30
2023-01-12T23:26:11.771Z,2.53
2023-01-12T23:28:41.430Z,2.30
2023-01-12T23:31:10.622Z,2.70
2023-01-12T23:33:38.021Z,3.00
2023-01-12T23:36:06.774Z,2.27
2023-01-12T23:38:33.620Z,2.63
2023-01-12T23:41:00.142Z,1.60
2023-01-12T23:43:27.771Z,3.07
2023-01-12T23:45:54.282Z,2.93
2023-01-12T23:48:22.593Z,2.70
2023-01-12T23:50:49.102Z,2.63
2023-01-12T23:53:15.568Z,2.10
2023-01-12T23:55:41.997Z,2.47
2023-01-12T23:58:08.721Z,2.83
